createdAt,value
2019-04-09T00:00:54.052Z,26.10
2019-04-09T00:03:23.259Z,21.47
2019-04-09T00:05:52.246Z,20.33
2019-04-09T00:08:21.235Z,23.67
2019-04-09T00:10:54.107Z,24.63
2019-04-09T00:13:23.102Z,26.50
2019-04-09T00:15:52.177Z,26.83
2019-04-09T00:18:21.335Z,23.70
2019-04-09T00:20:50.323Z,24.10
2019-04-09T00:23:19.300Z,21.77
2019-04-09T00:25:48.264Z,26.70
2019-04-09T00:28:17.597Z,25.20
2019-04-09T00:30:47.468Z,23.50
2019-04-09T00:33:17.705Z,22.73
2019-04-09T00:35:46.826Z,22.87
2019-04-09T00:38:15.811Z,22.53
2019-04-09T00:40:44.789Z,21.97
2019-04-09T00:43:14.459Z,25.87
2019-04-09T00:45:44.610Z,23.23
2019-04-09T00:48:13.786Z,23.37
2019-04-09T00:50:43.601Z,25.20
2019-04-09T00:53:13.635Z,25.00
2019-04-09T00:55:43.653Z,23.50
2019-04-09T00:58:12.833Z,24.20
2019-04-09T01:00:47.558Z,23.50
2019-04-09T01:03:18.283Z,25.73
2019-04-09T01:05:47.539Z,24.13
2019-04-09T01:08:16.532Z,23.17
2019-04-09T01:10:46.411Z,20.80
2019-04-09T01:13:16.022Z,23.83
2019-04-09T01:15:45.114Z,23.23
2019-04-09T01:18:14.173Z,21.17
2019-04-09T01:20:43.188Z,22.73
2019-04-09T01:23:12.173Z,22.90
2019-04-09T01:25:45.621Z,23.97
2019-04-09T01:28:16.242Z,23.17
2019-04-09T01:30:46.942Z,24.03
2019-04-09T01:33:36.593Z,24.93
2019-04-09T01:36:10.253Z,23.43
2019-04-09T01:38:47.060Z,26.20
2019-04-09T01:41:17.817Z,22.27
2019-04-09T01:43:51.366Z,24.00
2019-04-09T01:46:22.533Z,23.30
2019-04-09T01:49:09.466Z,25.27
2019-04-09T01:51:57.716Z,23.90
2019-04-09T01:54:44.805Z,21.87
2019-04-09T01:57:34.905Z,23.30
2019-04-09T02:00:42.700Z,21.77
2019-04-09T02:03:13.395Z,24.37
2019-04-09T02:05:56.224Z,24.17
2019-04-09T02:08:43.244Z,24.37
2019-04-09T02:11:20.026Z,22.93
2019-04-09T02:14:07.550Z,22.03
2019-04-09T02:16:39.223Z,24.40
2019-04-09T02:19:26.482Z,24.17
2019-04-09T02:21:57.651Z,24.40
2019-04-09T02:24:44.612Z,22.77
2019-04-09T02:27:18.882Z,25.10
2019-04-09T02:29:58.198Z,23.70
2019-04-09T02:32:32.405Z,25.53
2019-04-09T02:35:21.187Z,25.67
2019-04-09T02:38:10.225Z,24.53
2019-04-09T02:40:41.043Z,25.93
2019-04-09T02:43:28.710Z,24.17
2019-04-09T02:46:15.310Z,25.03
2019-04-09T02:48:45.946Z,26.37
2019-04-09T02:51:28.606Z,26.07
2019-04-09T02:54:16.402Z,26.80
2019-04-09T02:56:47.282Z,23.17
2019-04-09T02:59:30.019Z,24.20
2019-04-09T03:02:01.265Z,24.43
2019-04-09T03:04:32.029Z,25.50
2019-04-09T03:07:19.065Z,25.47
2019-04-09T03:09:49.698Z,24.57
2019-04-09T03:12:29.402Z,27.17
2019-04-09T03:15:00.082Z,27.47
2019-04-09T03:17:49.128Z,26.07
2019-04-09T03:20:28.462Z,25.67
2019-04-09T03:23:16.442Z,27.87
2019-04-09T03:25:49.807Z,26.83
2019-04-09T03:28:20.642Z,27.93
2019-04-09T03:30:55.324Z,26.83
2019-04-09T03:33:29.541Z,29.50
2019-04-09T03:36:10.446Z,27.27
2019-04-09T03:38:53.490Z,27.60
2019-04-09T03:41:24.979Z,25.03
2019-04-09T03:43:56.793Z,28.50
2019-04-09T03:46:27.961Z,24.43
2019-04-09T03:49:01.559Z,29.17
2019-04-09T03:51:51.571Z,26.07
2019-04-09T03:54:22.405Z,27.13
2019-04-09T03:57:09.143Z,27.83
2019-04-09T03:59:45.476Z,29.60
2019-04-09T04:02:16.093Z,30.03
2019-04-09T04:05:03.370Z,28.70
2019-04-09T04:07:34.244Z,27.60
2019-04-09T04:10:21.954Z,28.80
2019-04-09T04:13:08.374Z,28.93
2019-04-09T04:15:39.114Z,29.43
2019-04-09T04:18:12.267Z,27.27
2019-04-09T04:20:51.774Z,26.63
2019-04-09T04:23:25.275Z,25.27
2019-04-09T04:26:00.481Z,27.30
2019-04-09T04:28:37.568Z,27.50
2019-04-09T04:31:22.273Z,28.67
2019-04-09T04:33:54.000Z,26.47
2019-04-09T04:36:27.424Z,26.20
2019-04-09T04:38:58.086Z,26.83
2019-04-09T04:41:32.316Z,23.57
2019-04-09T04:44:20.026Z,26.37
2019-04-09T04:46:59.802Z,24.80
2019-04-09T04:49:31.342Z,27.97
2019-04-09T04:52:07.806Z,27.23
2019-04-09T04:54:41.115Z,28.53
2019-04-09T04:57:18.565Z,27.30
2019-04-09T04:59:52.802Z,30.17
2019-04-09T05:02:39.507Z,27.40
2019-04-09T05:05:14.069Z,27.77
2019-04-09T05:07:51.097Z,27.53
2019-04-09T05:10:27.983Z,27.70
2019-04-09T05:13:01.551Z,27.63
2019-04-09T05:15:41.684Z,28.10
2019-04-09T05:18:21.228Z,27.77
2019-04-09T05:20:54.290Z,28.13
2019-04-09T05:23:25.503Z,26.60
2019-04-09T05:26:12.361Z,28.13
2019-04-09T05:28:52.573Z,26.27
2019-04-09T05:31:35.887Z,26.30
2019-04-09T05:34:15.728Z,24.40
2019-04-09T05:36:52.179Z,28.27
2019-04-09T05:39:37.789Z,26.37
2019-04-09T05:42:21.265Z,27.70
2019-04-09T05:44:51.950Z,30.53
2019-04-09T05:47:39.021Z,28.47
2019-04-09T05:50:12.973Z,28.87
2019-04-09T05:52:43.791Z,28.20
2019-04-09T05:55:30.985Z,27.90
2019-04-09T05:58:11.129Z,30.17
2019-04-09T06:00:42.143Z,29.97
2019-04-09T06:03:19.874Z,31.97
2019-04-09T06:06:00.900Z,31.13
2019-04-09T06:08:46.764Z,30.87
2019-04-09T06:11:15.867Z,31.37
2019-04-09T06:13:45.916Z,33.40
2019-04-09T06:16:15.181Z,32.10
2019-04-09T06:18:44.158Z,32.70
2019-04-09T06:21:18.515Z,34.23
2019-04-09T06:23:43.830Z,35.77
2019-04-09T06:26:14.229Z,35.27
2019-04-09T06:28:44.125Z,34.07
2019-04-09T06:31:13.880Z,34.43
2019-04-09T06:34:01.329Z,34.23
2019-04-09T06:36:38.187Z,34.73
2019-04-09T06:39:25.527Z,35.83
2019-04-09T06:41:58.902Z,37.03
2019-04-09T06:44:39.220Z,36.10
2019-04-09T06:47:10.632Z,37.10
2019-04-09T06:49:56.975Z,35.33
2019-04-09T06:52:28.455Z,35.93
2019-04-09T06:55:04.145Z,36.20
2019-04-09T06:57:46.578Z,36.83
2019-04-09T07:00:20.450Z,35.53
2019-04-09T07:03:05.107Z,36.37
2019-04-09T07:05:41.447Z,39.80
2019-04-09T07:08:26.928Z,36.97
2019-04-09T07:11:11.571Z,34.27
2019-04-09T07:13:51.637Z,35.40
2019-04-09T07:16:46.048Z,35.30
2019-04-09T07:19:16.779Z,35.23
2019-04-09T07:21:50.840Z,35.67
2019-04-09T07:24:22.318Z,34.93
2019-04-09T07:27:09.977Z,34.87
2019-04-09T07:30:05.207Z,35.57
2019-04-09T07:32:30.389Z,34.17
2019-04-09T07:35:02.304Z,34.63
2019-04-09T07:37:36.251Z,33.43
2019-04-09T07:40:08.942Z,35.27
2019-04-09T07:42:56.047Z,35.37
2019-04-09T07:45:27.380Z,35.13
2019-04-09T07:48:04.111Z,34.13
2019-04-09T07:50:41.362Z,34.03
2019-04-09T07:53:12.712Z,33.43
2019-04-09T07:55:58.075Z,34.20
2019-04-09T07:58:39.731Z,33.53
2019-04-09T08:01:27.553Z,36.03
2019-04-09T08:04:01.850Z,34.87
2019-04-09T08:06:39.531Z,35.77
2019-04-09T08:09:22.633Z,33.77
2019-04-09T08:11:54.065Z,35.97
2019-04-09T08:14:26.634Z,37.07
2019-04-09T08:16:58.377Z,37.33
2019-04-09T08:19:45.234Z,35.73
2019-04-09T08:22:18.600Z,37.03
2019-04-09T08:24:57.631Z,37.00
2019-04-09T08:27:30.032Z,38.10
2019-04-09T08:30:17.110Z,38.07
2019-04-09T08:32:39.389Z,36.53
2019-04-09T08:35:18.013Z,37.53
2019-04-09T08:37:59.692Z,37.57
2019-04-09T08:40:49.990Z,38.37
2019-04-09T08:43:19.032Z,35.00
2019-04-09T08:46:08.072Z,34.73
2019-04-09T08:48:55.833Z,34.40
2019-04-09T08:51:36.195Z,37.20
2019-04-09T08:54:08.609Z,35.13
2019-04-09T08:56:43.954Z,35.27
2019-04-09T08:59:30.780Z,34.60
2019-04-09T09:02:12.413Z,33.27
2019-04-09T09:04:42.044Z,35.23
2019-04-09T09:07:09.439Z,33.80
2019-04-09T09:09:46.023Z,33.60
2019-04-09T09:12:38.893Z,35.70
2019-04-09T09:15:23.761Z,34.57
2019-04-09T09:17:57.434Z,34.87
2019-04-09T09:20:46.640Z,36.83
2019-04-09T09:23:17.460Z,36.03
2019-04-09T09:26:07.009Z,35.90
2019-04-09T09:28:37.127Z,36.73
2019-04-09T09:31:20.823Z,35.17
2019-04-09T09:34:03.153Z,38.47
2019-04-09T09:36:50.477Z,36.67
2019-04-09T09:39:25.192Z,38.47
2019-04-09T09:41:59.585Z,35.63
2019-04-09T09:44:43.519Z,38.30
2019-04-09T09:47:31.096Z,36.27
2019-04-09T09:50:04.766Z,37.97
2019-04-09T09:52:34.306Z,36.77
2019-04-09T09:55:08.161Z,36.73
2019-04-09T09:57:40.598Z,37.47
2019-04-09T10:00:12.567Z,39.63
2019-04-09T10:02:45.655Z,38.70
2019-04-09T10:05:28.832Z,39.57
2019-04-09T10:08:10.400Z,38.73
2019-04-09T10:10:54.362Z,40.53
2019-04-09T10:13:27.826Z,40.23
2019-04-09T10:15:59.411Z,38.93
2019-04-09T10:18:58.973Z,41.80
2019-04-09T10:21:35.751Z,40.83
2019-04-09T10:24:21.316Z,39.67
2019-04-09T10:26:59.007Z,39.90
2019-04-09T10:29:33.788Z,38.73
2019-04-09T10:32:14.004Z,41.47
2019-04-09T10:34:45.798Z,42.10
2019-04-09T10:37:33.086Z,40.97
2019-04-09T10:40:06.899Z,41.83
2019-04-09T10:42:52.770Z,41.33
2019-04-09T10:45:25.611Z,39.60
2019-04-09T10:47:58.714Z,41.20
2019-04-09T10:50:46.252Z,41.37
2019-04-09T10:53:18.825Z,40.03
2019-04-09T10:56:01.670Z,41.27
2019-04-09T10:58:44.014Z,39.10
2019-04-09T11:01:30.857Z,39.47
2019-04-09T11:04:09.799Z,40.73
2019-04-09T11:06:41.975Z,38.70
2019-04-09T11:09:22.115Z,38.20
2019-04-09T11:12:11.056Z,37.90
2019-04-09T11:15:02.156Z,37.33
2019-04-09T11:18:01.353Z,37.33
2019-04-09T11:20:35.205Z,40.30
2019-04-09T11:23:07.054Z,40.03
2019-04-09T11:25:49.699Z,40.37
2019-04-09T11:28:20.943Z,38.93
2019-04-09T11:31:08.440Z,39.97
2019-04-09T11:33:43.030Z,40.07
2019-04-09T11:36:23.078Z,38.27
2019-04-09T11:39:10.142Z,36.63
2019-04-09T11:41:44.913Z,38.97
2019-04-09T11:44:16.464Z,39.43
2019-04-09T11:46:47.214Z,38.40
2019-04-09T11:49:27.073Z,40.67
2019-04-09T11:52:12.711Z,38.67
2019-04-09T11:54:47.021Z,37.63
2019-04-09T11:57:30.856Z,38.07
2019-04-09T12:00:10.557Z,38.37
2019-04-09T12:02:42.172Z,39.07
2019-04-09T12:05:13.398Z,38.70
2019-04-09T12:07:46.917Z,38.53
2019-04-09T12:10:24.014Z,38.63
2019-04-09T12:13:04.322Z,37.80
2019-04-09T12:15:38.128Z,38.60
2019-04-09T12:18:25.982Z,37.00
2019-04-09T12:21:13.042Z,38.50
2019-04-09T12:23:52.662Z,37.17
2019-04-09T12:26:39.069Z,38.43
2019-04-09T12:29:27.396Z,36.87
2019-04-09T12:32:11.778Z,38.70
2019-04-09T12:34:49.214Z,35.37
2019-04-09T12:37:19.913Z,35.73
2019-04-09T12:40:00.208Z,36.93
2019-04-09T12:42:42.853Z,37.33
2019-04-09T12:45:22.707Z,37.57
2019-04-09T12:47:54.437Z,38.07
2019-04-09T12:50:26.367Z,38.70
2019-04-09T12:53:03.116Z,36.80
2019-04-09T12:55:36.510Z,36.43
2019-04-09T12:58:14.494Z,36.53
2019-04-09T13:00:45.536Z,37.60
2019-04-09T13:03:19.161Z,37.57
2019-04-09T13:05:52.825Z,38.43
2019-04-09T13:08:23.463Z,36.70
2019-04-09T13:11:06.580Z,36.83
2019-04-09T13:13:38.775Z,37.30
2019-04-09T13:16:25.769Z,37.57
2019-04-09T13:19:13.261Z,37.37
2019-04-09T13:22:01.552Z,37.50
2019-04-09T13:24:35.604Z,37.53
2019-04-09T13:27:22.675Z,37.60
2019-04-09T13:29:53.582Z,36.77
2019-04-09T13:32:39.351Z,35.93
2019-04-09T13:35:19.970Z,37.43
2019-04-09T13:37:53.784Z,36.43
2019-04-09T13:40:25.323Z,36.80
2019-04-09T15:23:09.620Z,23.80
2019-04-09T15:25:40.875Z,23.47
2019-04-09T15:28:09.741Z,23.43
2019-04-09T15:30:39.604Z,28.80
2019-04-09T15:33:08.784Z,26.40
2019-04-09T15:35:37.810Z,28.43
2019-04-09T15:38:06.872Z,28.83
2019-04-09T15:40:35.869Z,28.07
2019-04-09T15:43:04.988Z,26.70
2019-04-09T15:45:34.006Z,26.43
2019-04-09T15:48:03.093Z,25.17
2019-04-09T15:50:32.097Z,25.77
2019-04-09T15:53:01.871Z,26.30
2019-04-09T15:55:31.112Z,25.73
2019-04-09T15:58:00.106Z,25.50
2019-04-09T16:00:29.078Z,27.93
2019-04-09T16:02:58.751Z,22.00
2019-04-09T16:05:27.903Z,18.60
2019-04-09T16:07:56.917Z,16.37
2019-04-09T16:10:26.098Z,16.77
2019-04-09T16:12:55.450Z,17.87
2019-04-09T16:15:24.641Z,19.27
2019-04-09T16:17:53.632Z,19.57
2019-04-09T16:20:22.651Z,20.37
2019-04-09T16:22:51.643Z,20.03
2019-04-09T16:25:20.683Z,23.23
2019-04-09T16:27:50.613Z,23.83
2019-04-09T16:30:19.850Z,24.50
2019-04-09T16:33:00.772Z,26.80
2019-04-09T16:35:19.636Z,23.67
2019-04-09T16:37:48.650Z,22.50
2019-04-09T16:40:17.643Z,19.03
2019-04-09T16:42:47.257Z,15.30
2019-04-09T16:45:17.716Z,14.63
2019-04-09T16:47:47.384Z,14.20
2019-04-09T16:50:16.805Z,14.00
2019-04-09T16:52:46.719Z,14.30
2019-04-09T16:55:16.319Z,14.37
2019-04-09T16:57:55.343Z,14.73
2019-04-09T17:00:19.802Z,14.20
2019-04-09T17:02:48.919Z,13.37
2019-04-09T17:05:18.151Z,12.97
2019-04-09T17:07:48.209Z,13.83
2019-04-09T17:10:18.356Z,12.67
2019-04-09T17:12:48.435Z,12.50
2019-04-09T17:15:17.748Z,11.53
2019-04-09T17:17:46.739Z,13.27
2019-04-09T17:20:16.418Z,13.10
2019-04-09T17:22:45.529Z,12.00
2019-04-09T17:25:16.601Z,13.20
2019-04-09T17:27:46.728Z,12.07
2019-04-09T17:30:16.228Z,12.57
2019-04-09T17:32:46.001Z,13.17
2019-04-09T17:35:16.354Z,13.60
2019-04-09T17:37:45.632Z,12.70
2019-04-09T17:40:15.662Z,12.87
2019-04-09T17:42:45.109Z,12.60
2019-04-09T17:45:15.912Z,14.07
2019-04-09T17:47:46.069Z,13.63
2019-04-09T17:50:15.240Z,14.00
2019-04-09T17:52:44.222Z,14.67
2019-04-09T17:55:13.577Z,13.67
2019-04-09T17:57:42.571Z,14.90
2019-04-09T18:00:15.473Z,15.37
2019-04-09T18:02:44.773Z,15.13
2019-04-09T18:05:14.711Z,16.60
2019-04-09T18:07:44.559Z,16.47
2019-04-09T18:10:14.004Z,16.03
2019-04-09T18:12:43.183Z,17.00
2019-04-09T18:15:13.546Z,17.00
2019-04-09T18:17:43.893Z,17.33
2019-04-09T18:20:13.912Z,17.53
2019-04-09T18:22:43.355Z,16.90
2019-04-09T18:25:13.583Z,15.90
2019-04-09T18:31:21.631Z,17.47
2019-04-09T18:33:40.659Z,18.77
2019-04-09T18:36:10.557Z,17.93
2019-04-09T18:38:39.833Z,18.17
2019-04-09T18:41:08.907Z,18.40
2019-04-09T18:43:38.373Z,19.60
2019-04-09T18:46:10.400Z,19.40
2019-04-09T18:48:45.030Z,21.23
2019-04-09T18:51:10.486Z,19.00
2019-04-09T18:53:40.806Z,19.93
2019-04-09T18:56:10.194Z,20.13
2019-04-09T18:58:39.277Z,21.23
2019-04-09T19:01:08.822Z,21.43
2019-04-09T19:03:38.406Z,21.20
2019-04-09T19:06:08.192Z,22.03
2019-04-09T19:08:38.726Z,21.23
2019-04-09T19:11:08.280Z,21.03
2019-04-09T19:13:37.643Z,19.70
2019-04-09T19:16:08.143Z,20.43
2019-04-09T19:18:38.053Z,20.67
2019-04-09T19:21:08.075Z,21.63
2019-04-09T19:23:38.145Z,21.27
2019-04-09T19:26:08.006Z,21.77
2019-04-09T19:28:37.531Z,21.03
2019-04-09T19:31:07.215Z,22.23
2019-04-09T19:33:36.767Z,20.87
2019-04-09T19:36:08.055Z,20.40
2019-04-09T19:38:38.413Z,20.93
2019-04-09T19:41:08.090Z,21.73
2019-04-09T19:43:38.401Z,23.33
2019-04-09T19:46:09.396Z,22.17
2019-04-09T19:48:38.815Z,21.50
2019-04-09T19:51:09.079Z,21.80
2019-04-09T19:53:38.531Z,21.67
2019-04-09T19:56:08.920Z,23.07
2019-04-09T19:58:44.642Z,22.23
2019-04-09T20:01:10.099Z,23.70
2019-04-09T20:03:39.874Z,23.20
2019-04-09T20:06:09.688Z,22.80
2019-04-09T20:08:41.054Z,23.93
2019-04-09T20:11:10.904Z,24.40
2019-04-09T20:13:40.356Z,24.27
2019-04-09T20:16:10.791Z,25.60
2019-04-09T20:18:40.346Z,24.13
2019-04-09T20:21:10.445Z,24.50
2019-04-09T20:23:39.850Z,26.33
2019-04-09T20:26:09.894Z,24.47
2019-04-09T20:28:40.347Z,25.10
2019-04-09T20:31:10.230Z,24.47
2019-04-09T20:33:39.766Z,24.80
2019-04-09T20:36:09.342Z,25.03
2019-04-09T20:38:39.021Z,26.00
2019-04-09T20:41:09.004Z,26.03
2019-04-09T20:43:38.705Z,26.13
2019-04-09T20:46:08.223Z,25.83
2019-04-09T20:48:37.610Z,25.67
2019-04-09T20:51:06.990Z,25.97
2019-04-09T20:53:36.351Z,26.37
2019-04-09T20:56:06.757Z,26.73
2019-04-09T20:58:37.219Z,27.30
2019-04-09T21:01:25.035Z,27.57
2019-04-09T21:04:02.126Z,28.03
2019-04-09T21:06:28.686Z,28.57
2019-04-09T21:08:58.380Z,29.00
2019-04-09T21:11:28.495Z,27.93
2019-04-09T21:13:58.106Z,27.10
2019-04-09T21:16:30.959Z,28.87
2019-04-09T21:19:00.536Z,28.70
2019-04-09T21:21:29.906Z,29.07
2019-04-09T21:23:59.409Z,27.70
2019-04-09T21:26:29.685Z,27.97
2019-04-09T21:28:59.897Z,28.50
2019-04-09T21:31:29.417Z,29.50
2019-04-09T21:33:58.772Z,29.50
2019-04-09T21:36:28.134Z,30.17
2019-04-09T21:38:58.361Z,29.43
2019-04-09T21:41:28.408Z,31.03
2019-04-09T21:43:58.469Z,30.27
2019-04-09T21:46:29.692Z,28.23
2019-04-09T21:48:59.970Z,28.93
2019-04-09T21:51:29.531Z,29.93
2019-04-09T21:54:02.165Z,30.57
2019-04-09T21:56:30.173Z,29.80
2019-04-09T21:58:59.664Z,29.97
2019-04-09T22:01:29.570Z,29.27
2019-04-09T22:03:59.121Z,29.27
2019-04-09T22:06:31.638Z,29.53
2019-04-09T22:09:00.627Z,29.30
2019-04-09T22:11:30.724Z,30.77
2019-04-09T22:14:01.643Z,28.73
2019-04-09T22:16:31.722Z,30.07
2019-04-09T22:19:02.001Z,29.17
2019-04-09T22:21:31.516Z,29.10
2019-04-09T22:24:00.879Z,31.10
2019-04-09T22:26:30.254Z,28.93
2019-04-09T22:29:00.866Z,29.20
2019-04-09T22:31:33.156Z,29.23
2019-04-09T22:34:01.660Z,29.73
2019-04-09T22:36:37.575Z,29.07
2019-04-09T22:39:02.893Z,31.60
2019-04-09T22:41:33.308Z,30.50
2019-04-09T22:44:06.774Z,29.90
2019-04-09T22:46:34.256Z,30.17
2019-04-09T22:49:04.597Z,31.30
2019-04-09T22:51:34.937Z,31.47
2019-04-09T22:54:05.319Z,31.50
2019-04-09T22:56:36.109Z,31.30
2019-04-09T22:59:05.723Z,30.03
2019-04-09T23:01:45.656Z,31.10
2019-04-09T23:04:17.942Z,32.20
2019-04-09T23:06:56.956Z,30.90
2019-04-09T23:09:41.069Z,31.33
2019-04-09T23:12:12.047Z,31.23
2019-04-09T23:14:41.401Z,34.07
2019-04-09T23:17:11.313Z,33.10
2019-04-09T23:19:41.797Z,31.80
2019-04-09T23:22:11.247Z,33.87
2019-04-09T23:24:40.610Z,32.57
2019-04-09T23:27:10.249Z,33.47
2019-04-09T23:29:39.715Z,33.87
2019-04-09T23:32:09.691Z,32.90
2019-04-09T23:34:39.363Z,33.23
2019-04-09T23:37:09.381Z,34.27
2019-04-09T23:39:40.285Z,33.73
2019-04-09T23:42:09.930Z,32.80
2019-04-09T23:44:41.342Z,33.93
2019-04-09T23:47:11.115Z,33.93
2019-04-09T23:49:41.275Z,34.33
2019-04-09T23:52:10.846Z,34.50
2019-04-09T23:54:40.450Z,33.90
2019-04-09T23:57:10.048Z,34.40
2019-04-09T23:59:39.962Z,34.10
